createdAt,value
2023-05-13T00:01:29.604Z,11.61
2023-05-13T00:06:39.400Z,11.51
2023-05-13T00:11:44.588Z,11.18
2023-05-13T00:16:49.740Z,11.36
2023-05-13T00:21:57.598Z,11.73
2023-05-13T00:27:06.025Z,11.43
2023-05-13T00:32:11.266Z,11.31
2023-05-13T00:37:19.239Z,11.08
2023-05-13T00:42:24.450Z,10.82
2023-05-13T00:47:29.459Z,11.13
2023-05-13T00:52:39.648Z,11.09
2023-05-13T00:57:44.690Z,10.71
2023-05-13T01:02:56.371Z,10.82
2023-05-13T01:08:12.236Z,10.69
2023-05-13T01:13:21.678Z,10.83
2023-05-13T01:18:30.013Z,10.79
2023-05-13T01:23:37.922Z,10.39
2023-05-13T01:28:46.634Z,10.44
2023-05-13T01:33:53.042Z,10.70
2023-05-13T01:39:01.842Z,11.15
2023-05-13T01:44:10.358Z,11.17
2023-05-13T01:49:15.541Z,11.03
2023-05-13T01:54:25.904Z,10.78
2023-05-13T01:59:36.799Z,10.61
2023-05-13T02:04:41.909Z,10.60
2023-05-13T02:09:53.627Z,10.55
2023-05-13T02:14:58.835Z,10.86
2023-05-13T02:20:04.760Z,10.45
2023-05-13T02:25:13.573Z,10.15
2023-05-13T02:30:19.026Z,9.92
2023-05-13T02:35:25.711Z,10.02
2023-05-13T02:40:34.251Z,10.42
2023-05-13T02:45:41.095Z,10.33
2023-05-13T02:50:46.646Z,10.19
2023-05-13T02:55:54.651Z,10.39
2023-05-13T03:01:06.245Z,10.45
2023-05-13T03:06:12.940Z,10.39
2023-05-13T03:11:21.468Z,10.10
2023-05-13T03:16:27.097Z,10.23
2023-05-13T03:21:32.326Z,10.07
2023-05-13T03:26:42.949Z,10.06
2023-05-13T03:31:51.589Z,9.99
2023-05-13T03:36:56.804Z,10.18
2023-05-13T03:42:07.560Z,10.16
2023-05-13T03:47:15.541Z,10.18
2023-05-13T03:52:20.774Z,10.15
2023-05-13T03:57:31.034Z,10.16
2023-05-13T04:02:36.420Z,10.30
2023-05-13T04:07:41.602Z,10.12
2023-05-13T04:12:49.414Z,10.31
2023-05-13T04:17:54.904Z,10.36
2023-05-13T04:23:00.052Z,10.59
2023-05-13T04:28:08.467Z,10.03
2023-05-13T04:33:19.774Z,10.86
2023-05-13T04:38:26.897Z,11.13
2023-05-13T04:43:35.127Z,11.43
2023-05-13T04:48:40.899Z,11.40
2023-05-13T04:53:48.583Z,11.76
2023-05-13T04:58:58.350Z,12.80
2023-05-13T05:04:06.099Z,13.87
2023-05-13T05:09:13.607Z,14.69
2023-05-13T05:14:21.609Z,13.97
2023-05-13T05:19:28.322Z,15.17
2023-05-13T05:24:34.933Z,15.41
2023-05-13T05:29:42.661Z,15.00
2023-05-13T05:34:48.073Z,15.31
2023-05-13T05:39:53.375Z,16.14
2023-05-13T05:45:02.178Z,16.16
2023-05-13T05:50:08.057Z,16.76
2023-05-13T05:55:13.418Z,17.49
2023-05-13T06:00:24.364Z,17.12
2023-05-13T06:05:30.726Z,17.05
2023-05-13T06:10:36.039Z,17.03
2023-05-13T06:15:44.940Z,17.06
2023-05-13T06:20:50.320Z,18.15
2023-05-13T06:25:58.882Z,19.04
2023-05-13T06:31:14.045Z,18.79
2023-05-13T06:36:21.472Z,21.13
2023-05-13T06:41:27.072Z,20.40
2023-05-13T06:46:39.787Z,24.35
2023-05-13T06:51:45.003Z,22.56
2023-05-13T06:56:50.160Z,19.03
2023-05-13T07:01:57.945Z,20.11
2023-05-13T07:07:03.061Z,19.27
2023-05-13T07:12:10.356Z,20.22
2023-05-13T07:17:18.440Z,21.63
2023-05-13T07:22:25.659Z,20.95
2023-05-13T07:27:30.989Z,19.99
2023-05-13T07:32:39.204Z,20.42
2023-05-13T07:37:44.464Z,19.56
2023-05-13T07:42:51.595Z,19.64
2023-05-13T07:47:59.379Z,19.76
2023-05-13T07:53:06.338Z,19.56
2023-05-13T07:58:11.350Z,20.53
2023-05-13T08:03:22.485Z,19.21
2023-05-13T08:08:27.875Z,19.80
2023-05-13T08:13:35.165Z,20.19
2023-05-13T08:18:42.876Z,19.88
2023-05-13T08:23:47.997Z,19.51
2023-05-13T08:28:54.649Z,20.09
2023-05-13T08:34:02.744Z,19.50
2023-05-13T08:39:08.092Z,19.69
2023-05-13T08:44:16.324Z,19.56
2023-05-13T08:49:24.087Z,19.62
2023-05-13T08:54:29.719Z,20.05
2023-05-13T08:59:35.173Z,18.84
2023-05-13T09:04:44.342Z,19.96
2023-05-13T09:09:49.591Z,20.34
2023-05-13T09:14:54.618Z,19.86
2023-05-13T09:20:11.340Z,20.13
2023-05-13T09:25:17.065Z,19.30
2023-05-13T09:30:24.412Z,19.95
2023-05-13T09:35:35.132Z,20.71
2023-05-13T09:40:41.716Z,19.72
2023-05-13T09:45:46.975Z,18.99
2023-05-13T09:50:56.184Z,19.23
2023-05-13T09:56:01.962Z,18.87
2023-05-13T10:01:09.076Z,19.31
2023-05-13T10:06:22.511Z,19.47
2023-05-13T10:11:28.268Z,19.16
2023-05-13T10:16:35.010Z,19.14
2023-05-13T10:21:43.967Z,19.38
2023-05-13T10:26:49.990Z,19.38
2023-05-13T10:31:56.069Z,19.09
2023-05-13T10:37:18.715Z,18.75
2023-05-13T10:42:41.202Z,19.07
2023-05-13T10:47:47.051Z,18.36
2023-05-13T10:53:00.582Z,19.05
2023-05-13T10:58:08.063Z,18.66
2023-05-13T11:03:18.403Z,19.03
2023-05-13T11:08:44.848Z,18.94
2023-05-13T11:13:52.441Z,18.26
2023-05-13T11:18:57.635Z,17.65
2023-05-13T11:24:06.897Z,15.96
2023-05-13T11:29:11.976Z,16.54
2023-05-13T11:34:18.402Z,16.80
2023-05-13T11:39:27.552Z,16.69
2023-05-13T11:44:32.770Z,17.17
2023-05-13T11:49:39.987Z,16.99
2023-05-13T11:54:53.713Z,17.36
2023-05-13T12:00:01.846Z,17.30
2023-05-13T12:05:08.996Z,17.90
2023-05-13T12:10:17.038Z,17.68
2023-05-13T12:15:25.102Z,17.39
2023-05-13T12:20:30.435Z,17.78
2023-05-13T12:25:41.766Z,17.56
2023-05-13T12:30:53.589Z,17.76
2023-05-13T12:36:18.797Z,17.65
2023-05-13T12:41:29.970Z,17.70
2023-05-13T12:46:38.293Z,17.60
2023-05-13T12:51:43.450Z,17.77
2023-05-13T12:56:51.386Z,17.42
2023-05-13T13:01:57.713Z,17.78
2023-05-13T13:07:03.329Z,17.63
2023-05-13T13:12:14.534Z,17.65
2023-05-13T13:17:19.662Z,17.48
2023-05-13T13:22:25.222Z,18.26
2023-05-13T13:27:37.744Z,17.85
2023-05-13T13:32:42.831Z,17.31
2023-05-13T13:37:49.627Z,17.76
2023-05-13T13:43:00.051Z,17.76
2023-05-13T13:48:06.654Z,17.84
2023-05-13T13:53:14.601Z,17.66
2023-05-13T13:58:23.962Z,17.70
2023-05-13T14:03:29.215Z,17.41
2023-05-13T14:08:38.987Z,17.76
2023-05-13T14:13:46.722Z,17.39
2023-05-13T14:18:54.788Z,17.53
2023-05-13T14:24:05.116Z,17.73
2023-05-13T14:29:12.782Z,17.91
2023-05-13T14:34:19.979Z,17.62
2023-05-13T14:39:27.296Z,17.11
2023-05-13T14:44:35.188Z,16.89
2023-05-13T14:49:40.411Z,16.91
2023-05-13T14:54:45.459Z,16.85
2023-05-13T14:59:53.279Z,16.82
2023-05-13T15:04:59.596Z,16.51
2023-05-13T15:10:06.451Z,16.17
2023-05-13T15:15:15.051Z,15.79
2023-05-13T15:20:20.393Z,15.34
2023-05-13T15:25:26.350Z,15.56
2023-05-13T15:30:36.670Z,15.38
2023-05-13T15:35:43.886Z,15.45
2023-05-13T15:40:49.416Z,15.19
2023-05-13T15:46:00.011Z,15.19
2023-05-13T15:51:08.284Z,15.27
2023-05-13T15:56:14.143Z,15.04
2023-05-13T16:01:21.922Z,15.20
2023-05-13T16:06:27.061Z,15.28
2023-05-13T16:11:32.259Z,15.07
2023-05-13T16:16:40.168Z,14.61
2023-05-13T16:21:45.229Z,14.77
2023-05-13T16:26:50.368Z,14.52
2023-05-13T16:32:00.118Z,14.66
2023-05-13T16:37:07.606Z,14.59
2023-05-13T16:42:12.802Z,14.70
2023-05-13T16:47:23.109Z,14.62
2023-05-13T16:52:31.542Z,15.02
2023-05-13T16:57:37.086Z,14.82
2023-05-13T17:02:45.664Z,14.99
2023-05-13T17:07:52.834Z,15.11
2023-05-13T17:12:58.610Z,14.98
2023-05-13T17:18:07.569Z,14.97
2023-05-13T17:23:17.409Z,14.92
2023-05-13T17:28:23.825Z,15.14
2023-05-13T17:33:35.897Z,15.09
2023-05-13T17:38:41.251Z,14.89
2023-05-13T17:43:46.317Z,14.83
2023-05-13T17:48:54.145Z,14.89
2023-05-13T17:54:01.987Z,14.59
2023-05-13T17:59:07.084Z,14.89
2023-05-13T18:04:22.425Z,14.39
2023-05-13T18:09:28.920Z,14.39
2023-05-13T18:14:34.492Z,14.54
2023-05-13T18:19:43.301Z,14.30
2023-05-13T18:24:55.761Z,14.21
2023-05-13T18:30:01.169Z,14.22
2023-05-13T18:35:09.527Z,14.53
2023-05-13T18:40:15.677Z,14.04
2023-05-13T18:45:22.926Z,14.22
2023-05-13T18:50:30.832Z,14.31
2023-05-13T18:55:37.985Z,14.29
2023-05-13T19:00:43.034Z,14.19
2023-05-13T19:05:52.929Z,13.88
2023-05-13T19:10:58.162Z,13.97
2023-05-13T19:16:05.815Z,14.08
2023-05-13T19:21:13.684Z,14.18
2023-05-13T19:26:29.450Z,14.10
2023-05-13T19:31:34.753Z,14.13
2023-05-13T19:36:42.576Z,14.27
2023-05-13T19:41:52.543Z,14.23
2023-05-13T19:46:57.797Z,13.97
2023-05-13T19:52:06.678Z,13.72
2023-05-13T19:57:11.678Z,13.63
2023-05-13T20:02:17.114Z,13.74
2023-05-13T20:07:27.128Z,13.79
2023-05-13T20:12:34.401Z,13.73
2023-05-13T20:17:39.808Z,13.49
2023-05-13T20:22:47.622Z,13.52
2023-05-13T20:27:52.791Z,13.53
2023-05-13T20:33:00.298Z,13.41
2023-05-13T20:38:11.216Z,13.17
2023-05-13T20:43:17.181Z,13.31
2023-05-13T20:48:22.336Z,13.33
2023-05-13T20:53:37.448Z,13.45
2023-05-13T20:58:42.654Z,13.62
2023-05-13T21:03:50.047Z,13.56
2023-05-13T21:08:58.689Z,13.65
2023-05-13T21:14:05.573Z,13.59
2023-05-13T21:19:25.402Z,13.55
2023-05-13T21:24:33.068Z,13.50
2023-05-13T21:29:38.289Z,13.42
2023-05-13T21:34:45.373Z,13.35
2023-05-13T21:39:53.067Z,13.37
2023-05-13T21:45:00.615Z,13.41
2023-05-13T21:50:06.485Z,13.44
2023-05-13T21:55:14.410Z,13.36
2023-05-13T22:00:29.058Z,13.37
2023-05-13T22:05:34.291Z,13.51
2023-05-13T22:10:42.430Z,13.49
2023-05-13T22:15:47.808Z,13.79
2023-05-13T22:20:52.971Z,13.30
2023-05-13T22:26:01.483Z,13.25
2023-05-13T22:31:07.246Z,13.35
2023-05-13T22:36:15.688Z,13.50
2023-05-13T22:41:24.020Z,13.33
2023-05-13T22:46:31.462Z,13.17
2023-05-13T22:51:39.123Z,13.09
2023-05-13T22:56:47.988Z,13.30
2023-05-13T23:02:00.624Z,13.01
2023-05-13T23:07:07.896Z,12.56
2023-05-13T23:12:22.054Z,12.76
2023-05-13T23:17:29.433Z,12.64
2023-05-13T23:22:38.729Z,12.73
2023-05-13T23:27:46.484Z,12.99
2023-05-13T23:32:51.622Z,12.90
2023-05-13T23:37:56.889Z,12.89
2023-05-13T23:43:06.864Z,12.76
2023-05-13T23:48:14.905Z,12.66
2023-05-13T23:53:21.059Z,12.62
2023-05-13T23:58:29.790Z,12.49
